sensor_id;sensor_type;location;lat;lon;timestamp;P1;durP1;ratioP1;P2;durP2;ratioP2
50681;SDS011;36779;52.168;20.878;2024-01-16T00:00:30;0.70;;;0.40;;
50681;SDS011;36779;52.168;20.878;2024-01-16T00:03:23;1.50;;;0.60;;
50681;SDS011;36779;52.168;20.878;2024-01-16T00:05:55;1.20;;;0.50;;
50681;SDS011;36779;52.168;20.878;2024-01-16T00:08:28;2.30;;;0.50;;
50681;SDS011;36779;52.168;20.878;2024-01-16T00:11:02;1.70;;;0.60;;
50681;SDS011;36779;52.168;20.878;2024-01-16T00:13:35;3.60;;;0.70;;
50681;SDS011;36779;52.168;20.878;2024-01-16T00:16:07;1.60;;;0.60;;
50681;SDS011;36779;52.168;20.878;2024-01-16T00:18:48;1.40;;;0.60;;
50681;SDS011;36779;52.168;20.878;2024-01-16T00:21:24;3.40;;;0.70;;
50681;SDS011;36779;52.168;20.878;2024-01-16T00:23:58;1.40;;;0.90;;
50681;SDS011;36779;52.168;20.878;2024-01-16T00:26:32;0.80;;;0.40;;
50681;SDS011;36779;52.168;20.878;2024-01-16T00:29:07;0.80;;;0.60;;
50681;SDS011;36779;52.168;20.878;2024-01-16T00:31:42;1.70;;;0.50;;
50681;SDS011;36779;52.168;20.878;2024-01-16T00:34:14;1.30;;;0.40;;
50681;SDS011;36779;52.168;20.878;2024-01-16T00:36:48;2.00;;;0.80;;
50681;SDS011;36779;52.168;20.878;2024-01-16T00:39:22;1.20;;;0.40;;
50681;SDS011;36779;52.168;20.878;2024-01-16T00:41:54;1.80;;;0.80;;
50681;SDS011;36779;52.168;20.878;2024-01-16T00:44:27;1.40;;;0.90;;
50681;SDS011;36779;52.168;20.878;2024-01-16T00:47:00;3.80;;;0.80;;
50681;SDS011;36779;52.168;20.878;2024-01-16T00:49:43;3.60;;;0.90;;
50681;SDS011;36779;52.168;20.878;2024-01-16T00:52:16;3.50;;;0.90;;
50681;SDS011;36779;52.168;20.878;2024-01-16T00:54:49;1.90;;;0.50;;
50681;SDS011;36779;52.168;20.878;2024-01-16T00:57:22;2.00;;;0.60;;
50681;SDS011;36779;52.168;20.878;2024-01-16T00:59:56;1.90;;;0.80;;
50681;SDS011;36779;52.168;20.878;2024-01-16T01:02:29;1.30;;;0.60;;
50681;SDS011;36779;52.168;20.878;2024-01-16T01:05:03;1.90;;;0.80;;
50681;SDS011;36779;52.168;20.878;2024-01-16T01:07:37;2.40;;;0.50;;
50681;SDS011;36779;52.168;20.878;2024-01-16T01:10:10;2.80;;;0.60;;
50681;SDS011;36779;52.168;20.878;2024-01-16T01:12:43;1.20;;;0.50;;
50681;SDS011;36779;52.168;20.878;2024-01-16T01:15:15;1.10;;;0.60;;
50681;SDS011;36779;52.168;20.878;2024-01-16T01:17:49;2.20;;;0.80;;
50681;SDS011;36779;52.168;20.878;2024-01-16T01:20:30;0.70;;;0.60;;
50681;SDS011;36779;52.168;20.878;2024-01-16T01:23:06;1.70;;;0.80;;
50681;SDS011;36779;52.168;20.878;2024-01-16T01:25:47;2.10;;;0.60;;
50681;SDS011;36779;52.168;20.878;2024-01-16T01:28:19;2.20;;;0.50;;
50681;SDS011;36779;52.168;20.878;2024-01-16T01:30:52;2.40;;;0.60;;
50681;SDS011;36779;52.168;20.878;2024-01-16T01:33:25;1.50;;;0.60;;
50681;SDS011;36779;52.168;20.878;2024-01-16T01:35:59;4.80;;;0.90;;
50681;SDS011;36779;52.168;20.878;2024-01-16T01:38:33;0.80;;;0.50;;
50681;SDS011;36779;52.168;20.878;2024-01-16T01:41:05;0.40;;;0.30;;
50681;SDS011;36779;52.168;20.878;2024-01-16T01:43:38;0.20;;;0.20;;
50681;SDS011;36779;52.168;20.878;2024-01-16T01:46:18;1.10;;;0.40;;
50681;SDS011;36779;52.168;20.878;2024-01-16T01:48:56;0.20;;;0.20;;
50681;SDS011;36779;52.168;20.878;2024-01-16T01:51:30;1.90;;;0.40;;
50681;SDS011;36779;52.168;20.878;2024-01-16T01:54:05;4.30;;;0.40;;
50681;SDS011;36779;52.168;20.878;2024-01-16T01:56:37;1.70;;;0.70;;
50681;SDS011;36779;52.168;20.878;2024-01-16T01:59:10;1.90;;;0.70;;
50681;SDS011;36779;52.168;20.878;2024-01-16T02:01:44;2.10;;;0.50;;
50681;SDS011;36779;52.168;20.878;2024-01-16T02:04:17;0.80;;;0.50;;
50681;SDS011;36779;52.168;20.878;2024-01-16T02:06:52;2.60;;;0.50;;
50681;SDS011;36779;52.168;20.878;2024-01-16T02:09:28;1.80;;;0.50;;
50681;SDS011;36779;52.168;20.878;2024-01-16T02:12:00;3.10;;;0.70;;
50681;SDS011;36779;52.168;20.878;2024-01-16T02:14:37;3.60;;;0.80;;
50681;SDS011;36779;52.168;20.878;2024-01-16T02:17:09;0.90;;;0.60;;
50681;SDS011;36779;52.168;20.878;2024-01-16T02:19:46;1.20;;;0.50;;
50681;SDS011;36779;52.168;20.878;2024-01-16T02:22:19;1.80;;;0.40;;
50681;SDS011;36779;52.168;20.878;2024-01-16T02:24:58;2.80;;;0.60;;
50681;SDS011;36779;52.168;20.878;2024-01-16T02:27:31;1.70;;;0.60;;
50681;SDS011;36779;52.168;20.878;2024-01-16T02:30:06;2.10;;;0.70;;
50681;SDS011;36779;52.168;20.878;2024-01-16T02:32:39;0.30;;;0.30;;
50681;SDS011;36779;52.168;20.878;2024-01-16T02:35:12;1.30;;;0.40;;
50681;SDS011;36779;52.168;20.878;2024-01-16T02:37:46;0.30;;;0.20;;
50681;SDS011;36779;52.168;20.878;2024-01-16T02:40:26;0.50;;;0.40;;
50681;SDS011;36779;52.168;20.878;2024-01-16T02:43:03;3.40;;;0.60;;
50681;SDS011;36779;52.168;20.878;2024-01-16T02:45:36;8.90;;;0.70;;
50681;SDS011;36779;52.168;20.878;2024-01-16T02:48:08;1.90;;;0.60;;
50681;SDS011;36779;52.168;20.878;2024-01-16T02:50:42;1.20;;;0.60;;
50681;SDS011;36779;52.168;20.878;2024-01-16T02:53:15;0.50;;;0.40;;
50681;SDS011;36779;52.168;20.878;2024-01-16T02:55:49;2.00;;;0.70;;
50681;SDS011;36779;52.168;20.878;2024-01-16T02:58:21;0.70;;;0.50;;
50681;SDS011;36779;52.168;20.878;2024-01-16T03:00:53;1.50;;;0.40;;
50681;SDS011;36779;52.168;20.878;2024-01-16T03:03:27;0.60;;;0.40;;
50681;SDS011;36779;52.168;20.878;2024-01-16T03:06:04;1.50;;;0.40;;
50681;SDS011;36779;52.168;20.878;2024-01-16T03:08:37;1.40;;;0.50;;
50681;SDS011;36779;52.168;20.878;2024-01-16T03:11:10;0.50;;;0.50;;
50681;SDS011;36779;52.168;20.878;2024-01-16T03:13:45;0.70;;;0.40;;
50681;SDS011;36779;52.168;20.878;2024-01-16T03:16:21;1.90;;;0.50;;
50681;SDS011;36779;52.168;20.878;2024-01-16T03:18:55;0.30;;;0.30;;
50681;SDS011;36779;52.168;20.878;2024-01-16T03:21:28;0.50;;;0.40;;
50681;SDS011;36779;52.168;20.878;2024-01-16T03:24:03;0.90;;;0.50;;
50681;SDS011;36779;52.168;20.878;2024-01-16T03:26:36;0.40;;;0.30;;
50681;SDS011;36779;52.168;20.878;2024-01-16T03:29:09;2.30;;;0.80;;
50681;SDS011;36779;52.168;20.878;2024-01-16T03:31:42;1.90;;;0.90;;
50681;SDS011;36779;52.168;20.878;2024-01-16T03:34:14;2.50;;;0.50;;
50681;SDS011;36779;52.168;20.878;2024-01-16T03:36:46;3.90;;;0.90;;
50681;SDS011;36779;52.168;20.878;2024-01-16T03:39:19;1.50;;;0.60;;
50681;SDS011;36779;52.168;20.878;2024-01-16T03:41:52;2.10;;;0.80;;
50681;SDS011;36779;52.168;20.878;2024-01-16T03:44:24;1.80;;;0.80;;
50681;SDS011;36779;52.168;20.878;2024-01-16T03:46:57;3.20;;;0.70;;
50681;SDS011;36779;52.168;20.878;2024-01-16T03:49:29;3.70;;;1.10;;
50681;SDS011;36779;52.168;20.878;2024-01-16T03:52:05;3.70;;;0.90;;
50681;SDS011;36779;52.168;20.878;2024-01-16T03:54:37;1.30;;;0.50;;
50681;SDS011;36779;52.168;20.878;2024-01-16T03:57:10;1.50;;;0.40;;
50681;SDS011;36779;52.168;20.878;2024-01-16T03:59:43;1.30;;;0.70;;
50681;SDS011;36779;52.168;20.878;2024-01-16T04:02:15;4.20;;;0.90;;
50681;SDS011;36779;52.168;20.878;2024-01-16T04:04:49;2.90;;;0.50;;
50681;SDS011;36779;52.168;20.878;2024-01-16T04:07:23;2.80;;;0.80;;
50681;SDS011;36779;52.168;20.878;2024-01-16T04:09:59;7.10;;;0.80;;
50681;SDS011;36779;52.168;20.878;2024-01-16T04:12:34;1.60;;;0.80;;
50681;SDS011;36779;52.168;20.878;2024-01-16T04:15:07;1.10;;;0.80;;
50681;SDS011;36779;52.168;20.878;2024-01-16T04:17:42;2.70;;;0.90;;
50681;SDS011;36779;52.168;20.878;2024-01-16T04:20:15;3.40;;;0.90;;
50681;SDS011;36779;52.168;20.878;2024-01-16T04:22:48;2.30;;;0.70;;
50681;SDS011;36779;52.168;20.878;2024-01-16T04:25:24;2.80;;;0.80;;
50681;SDS011;36779;52.168;20.878;2024-01-16T04:27:57;1.70;;;0.60;;
50681;SDS011;36779;52.168;20.878;2024-01-16T04:30:35;1.80;;;1.00;;
50681;SDS011;36779;52.168;20.878;2024-01-16T04:33:07;1.20;;;0.90;;
50681;SDS011;36779;52.168;20.878;2024-01-16T04:35:39;2.30;;;1.50;;
50681;SDS011;36779;52.168;20.878;2024-01-16T04:38:12;1.20;;;0.80;;
50681;SDS011;36779;52.168;20.878;2024-01-16T04:40:44;2.80;;;1.30;;
50681;SDS011;36779;52.168;20.878;2024-01-16T04:43:17;3.40;;;1.10;;
50681;SDS011;36779;52.168;20.878;2024-01-16T04:45:50;3.90;;;1.00;;
50681;SDS011;36779;52.168;20.878;2024-01-16T04:48:37;3.00;;;0.90;;
50681;SDS011;36779;52.168;20.878;2024-01-16T04:51:11;2.80;;;1.20;;
50681;SDS011;36779;52.168;20.878;2024-01-16T04:53:44;2.50;;;1.00;;
50681;SDS011;36779;52.168;20.878;2024-01-16T04:56:16;0.80;;;0.60;;
50681;SDS011;36779;52.168;20.878;2024-01-16T04:58:50;1.30;;;0.70;;
50681;SDS011;36779;52.168;20.878;2024-01-16T05:01:23;1.90;;;0.80;;
50681;SDS011;36779;52.168;20.878;2024-01-16T05:04:09;1.60;;;0.70;;
50681;SDS011;36779;52.168;20.878;2024-01-16T05:06:43;1.80;;;0.80;;
50681;SDS011;36779;52.168;20.878;2024-01-16T05:09:16;1.90;;;0.90;;
50681;SDS011;36779;52.168;20.878;2024-01-16T05:11:50;9.80;;;1.00;;
50681;SDS011;36779;52.168;20.878;2024-01-16T05:14:22;3.40;;;1.20;;
50681;SDS011;36779;52.168;20.878;2024-01-16T05:16:55;3.70;;;1.40;;
50681;SDS011;36779;52.168;20.878;2024-01-16T05:19:27;2.50;;;1.20;;
50681;SDS011;36779;52.168;20.878;2024-01-16T05:22:03;4.30;;;1.50;;
50681;SDS011;36779;52.168;20.878;2024-01-16T05:24:35;3.40;;;1.40;;
50681;SDS011;36779;52.168;20.878;2024-01-16T05:27:08;3.40;;;1.20;;
50681;SDS011;36779;52.168;20.878;2024-01-16T05:29:41;5.70;;;1.40;;
50681;SDS011;36779;52.168;20.878;2024-01-16T05:32:15;3.70;;;1.50;;
50681;SDS011;36779;52.168;20.878;2024-01-16T05:34:47;4.80;;;1.70;;
50681;SDS011;36779;52.168;20.878;2024-01-16T05:37:21;4.90;;;2.00;;
50681;SDS011;36779;52.168;20.878;2024-01-16T05:39:53;5.80;;;2.10;;
50681;SDS011;36779;52.168;20.878;2024-01-16T05:42:29;9.30;;;2.60;;
50681;SDS011;36779;52.168;20.878;2024-01-16T05:45:02;7.60;;;3.00;;
50681;SDS011;36779;52.168;20.878;2024-01-16T05:47:36;6.80;;;2.80;;
50681;SDS011;36779;52.168;20.878;2024-01-16T05:50:09;6.80;;;2.60;;
50681;SDS011;36779;52.168;20.878;2024-01-16T05:52:42;6.00;;;2.40;;
50681;SDS011;36779;52.168;20.878;2024-01-16T05:55:15;9.30;;;2.10;;
50681;SDS011;36779;52.168;20.878;2024-01-16T05:57:53;5.80;;;1.90;;
50681;SDS011;36779;52.168;20.878;2024-01-16T06:00:26;4.80;;;1.90;;
50681;SDS011;36779;52.168;20.878;2024-01-16T06:03:02;6.30;;;1.60;;
50681;SDS011;36779;52.168;20.878;2024-01-16T06:05:35;6.40;;;1.70;;
50681;SDS011;36779;52.168;20.878;2024-01-16T06:08:09;6.00;;;2.20;;
50681;SDS011;36779;52.168;20.878;2024-01-16T06:10:42;3.10;;;1.60;;
50681;SDS011;36779;52.168;20.878;2024-01-16T06:13:14;6.40;;;2.20;;
50681;SDS011;36779;52.168;20.878;2024-01-16T06:15:49;6.00;;;1.90;;
50681;SDS011;36779;52.168;20.878;2024-01-16T06:18:22;5.20;;;2.60;;
50681;SDS011;36779;52.168;20.878;2024-01-16T06:20:54;6.10;;;3.60;;
50681;SDS011;36779;52.168;20.878;2024-01-16T06:23:26;8.30;;;4.90;;
50681;SDS011;36779;52.168;20.878;2024-01-16T06:26:00;5.50;;;4.20;;
50681;SDS011;36779;52.168;20.878;2024-01-16T06:28:33;3.50;;;2.80;;
50681;SDS011;36779;52.168;20.878;2024-01-16T06:31:05;6.70;;;2.50;;
50681;SDS011;36779;52.168;20.878;2024-01-16T06:33:37;3.90;;;1.80;;
50681;SDS011;36779;52.168;20.878;2024-01-16T06:36:10;6.10;;;2.10;;
50681;SDS011;36779;52.168;20.878;2024-01-16T06:38:42;9.40;;;2.00;;
50681;SDS011;36779;52.168;20.878;2024-01-16T06:41:15;8.20;;;1.90;;
50681;SDS011;36779;52.168;20.878;2024-01-16T06:43:48;3.30;;;1.70;;
50681;SDS011;36779;52.168;20.878;2024-01-16T06:46:20;6.50;;;1.60;;
50681;SDS011;36779;52.168;20.878;2024-01-16T06:48:58;3.80;;;1.60;;
50681;SDS011;36779;52.168;20.878;2024-01-16T06:51:32;4.50;;;1.50;;
50681;SDS011;36779;52.168;20.878;2024-01-16T06:54:05;3.10;;;1.60;;
50681;SDS011;36779;52.168;20.878;2024-01-16T06:56:37;4.20;;;1.20;;
50681;SDS011;36779;52.168;20.878;2024-01-16T06:59:10;4.00;;;1.60;;
50681;SDS011;36779;52.168;20.878;2024-01-16T07:01:42;2.70;;;1.00;;
50681;SDS011;36779;52.168;20.878;2024-01-16T07:04:14;3.00;;;1.30;;
50681;SDS011;36779;52.168;20.878;2024-01-16T07:06:47;7.80;;;2.90;;
50681;SDS011;36779;52.168;20.878;2024-01-16T07:09:19;11.10;;;2.30;;
50681;SDS011;36779;52.168;20.878;2024-01-16T07:11:52;6.70;;;2.50;;
50681;SDS011;36779;52.168;20.878;2024-01-16T07:14:27;8.20;;;2.40;;
50681;SDS011;36779;52.168;20.878;2024-01-16T07:17:00;7.80;;;2.20;;
50681;SDS011;36779;52.168;20.878;2024-01-16T07:19:34;9.90;;;3.00;;
50681;SDS011;36779;52.168;20.878;2024-01-16T07:22:07;4.80;;;1.30;;
50681;SDS011;36779;52.168;20.878;2024-01-16T07:24:44;6.70;;;2.40;;
50681;SDS011;36779;52.168;20.878;2024-01-16T07:27:19;12.50;;;3.50;;
50681;SDS011;36779;52.168;20.878;2024-01-16T07:29:52;25.40;;;10.80;;
50681;SDS011;36779;52.168;20.878;2024-01-16T07:32:26;13.30;;;5.20;;
50681;SDS011;36779;52.168;20.878;2024-01-16T07:35:01;6.00;;;2.30;;
50681;SDS011;36779;52.168;20.878;2024-01-16T07:37:34;6.10;;;2.80;;
50681;SDS011;36779;52.168;20.878;2024-01-16T07:40:07;5.40;;;2.10;;
50681;SDS011;36779;52.168;20.878;2024-01-16T07:42:42;2.90;;;1.10;;
50681;SDS011;36779;52.168;20.878;2024-01-16T07:45:14;2.70;;;1.10;;
50681;SDS011;36779;52.168;20.878;2024-01-16T07:47:47;2.30;;;1.00;;
50681;SDS011;36779;52.168;20.878;2024-01-16T07:50:19;3.50;;;1.40;;
50681;SDS011;36779;52.168;20.878;2024-01-16T07:52:54;1.70;;;0.70;;
50681;SDS011;36779;52.168;20.878;2024-01-16T07:55:27;6.20;;;1.80;;
50681;SDS011;36779;52.168;20.878;2024-01-16T07:58:00;5.10;;;1.40;;
50681;SDS011;36779;52.168;20.878;2024-01-16T08:00:34;6.00;;;2.10;;
50681;SDS011;36779;52.168;20.878;2024-01-16T08:03:07;6.70;;;2.20;;
50681;SDS011;36779;52.168;20.878;2024-01-16T08:05:42;6.70;;;2.60;;
50681;SDS011;36779;52.168;20.878;2024-01-16T08:08:15;9.70;;;2.80;;
50681;SDS011;36779;52.168;20.878;2024-01-16T08:10:49;4.90;;;2.20;;
50681;SDS011;36779;52.168;20.878;2024-01-16T08:13:22;2.50;;;0.60;;
50681;SDS011;36779;52.168;20.878;2024-01-16T08:15:54;4.30;;;2.30;;
50681;SDS011;36779;52.168;20.878;2024-01-16T08:18:27;3.90;;;1.10;;
50681;SDS011;36779;52.168;20.878;2024-01-16T08:21:01;5.90;;;2.30;;
50681;SDS011;36779;52.168;20.878;2024-01-16T08:23:34;8.00;;;1.80;;
50681;SDS011;36779;52.168;20.878;2024-01-16T08:26:06;4.50;;;1.70;;
50681;SDS011;36779;52.168;20.878;2024-01-16T08:28:39;5.40;;;1.10;;
50681;SDS011;36779;52.168;20.878;2024-01-16T08:31:12;3.80;;;1.80;;
50681;SDS011;36779;52.168;20.878;2024-01-16T08:33:46;2.50;;;1.20;;
50681;SDS011;36779;52.168;20.878;2024-01-16T08:36:22;4.20;;;1.30;;
50681;SDS011;36779;52.168;20.878;2024-01-16T08:38:59;4.00;;;1.40;;
50681;SDS011;36779;52.168;20.878;2024-01-16T08:41:39;7.80;;;2.00;;
50681;SDS011;36779;52.168;20.878;2024-01-16T08:44:12;3.90;;;1.80;;
50681;SDS011;36779;52.168;20.878;2024-01-16T08:46:45;4.70;;;1.60;;
50681;SDS011;36779;52.168;20.878;2024-01-16T08:49:17;2.40;;;1.20;;
50681;SDS011;36779;52.168;20.878;2024-01-16T08:51:50;4.10;;;1.50;;
50681;SDS011;36779;52.168;20.878;2024-01-16T08:54:22;4.10;;;2.50;;
50681;SDS011;36779;52.168;20.878;2024-01-16T08:56:55;3.80;;;1.60;;
50681;SDS011;36779;52.168;20.878;2024-01-16T08:59:27;7.20;;;1.50;;
50681;SDS011;36779;52.168;20.878;2024-01-16T09:02:01;2.30;;;1.30;;
50681;SDS011;36779;52.168;20.878;2024-01-16T09:04:34;4.60;;;1.90;;
50681;SDS011;36779;52.168;20.878;2024-01-16T09:07:07;5.00;;;1.40;;
50681;SDS011;36779;52.168;20.878;2024-01-16T09:09:40;2.40;;;1.10;;
50681;SDS011;36779;52.168;20.878;2024-01-16T09:12:12;3.00;;;1.20;;
50681;SDS011;36779;52.168;20.878;2024-01-16T09:14:45;3.20;;;1.00;;
50681;SDS011;36779;52.168;20.878;2024-01-16T09:17:18;8.10;;;2.30;;
50681;SDS011;36779;52.168;20.878;2024-01-16T09:19:51;3.40;;;1.60;;
50681;SDS011;36779;52.168;20.878;2024-01-16T09:22:24;3.60;;;0.90;;
50681;SDS011;36779;52.168;20.878;2024-01-16T09:24:56;4.80;;;2.10;;
50681;SDS011;36779;52.168;20.878;2024-01-16T09:27:30;7.70;;;2.20;;
50681;SDS011;36779;52.168;20.878;2024-01-16T09:30:03;8.30;;;2.00;;
50681;SDS011;36779;52.168;20.878;2024-01-16T09:32:37;2.80;;;1.20;;
50681;SDS011;36779;52.168;20.878;2024-01-16T09:35:10;5.70;;;1.80;;
50681;SDS011;36779;52.168;20.878;2024-01-16T09:37:43;2.70;;;1.20;;
50681;SDS011;36779;52.168;20.878;2024-01-16T09:40:18;2.10;;;0.90;;
50681;SDS011;36779;52.168;20.878;2024-01-16T09:42:51;7.60;;;1.40;;
50681;SDS011;36779;52.168;20.878;2024-01-16T09:45:24;1.50;;;0.60;;
50681;SDS011;36779;52.168;20.878;2024-01-16T09:47:57;6.60;;;1.20;;
50681;SDS011;36779;52.168;20.878;2024-01-16T09:50:32;3.50;;;1.20;;
50681;SDS011;36779;52.168;20.878;2024-01-16T09:53:06;7.50;;;1.50;;
50681;SDS011;36779;52.168;20.878;2024-01-16T09:55:39;8.50;;;1.90;;
50681;SDS011;36779;52.168;20.878;2024-01-16T09:58:13;8.40;;;2.90;;
50681;SDS011;36779;52.168;20.878;2024-01-16T10:00:54;11.80;;;3.20;;
50681;SDS011;36779;52.168;20.878;2024-01-16T10:03:28;7.60;;;2.90;;
50681;SDS011;36779;52.168;20.878;2024-01-16T10:06:06;7.30;;;2.30;;
50681;SDS011;36779;52.168;20.878;2024-01-16T10:08:39;10.60;;;3.00;;
50681;SDS011;36779;52.168;20.878;2024-01-16T10:11:15;10.10;;;3.30;;
50681;SDS011;36779;52.168;20.878;2024-01-16T10:13:48;8.10;;;2.70;;
50681;SDS011;36779;52.168;20.878;2024-01-16T10:16:22;5.80;;;2.60;;
50681;SDS011;36779;52.168;20.878;2024-01-16T10:19:06;8.00;;;2.40;;
50681;SDS011;36779;52.168;20.878;2024-01-16T10:21:39;9.00;;;3.20;;
50681;SDS011;36779;52.168;20.878;2024-01-16T10:24:14;9.90;;;2.80;;
50681;SDS011;36779;52.168;20.878;2024-01-16T10:26:49;8.90;;;3.80;;
50681;SDS011;36779;52.168;20.878;2024-01-16T10:29:33;6.80;;;3.10;;
50681;SDS011;36779;52.168;20.878;2024-01-16T10:32:26;8.20;;;3.40;;
50681;SDS011;36779;52.168;20.878;2024-01-16T10:35:05;6.70;;;2.70;;
50681;SDS011;36779;52.168;20.878;2024-01-16T10:37:42;7.30;;;2.50;;
50681;SDS011;36779;52.168;20.878;2024-01-16T10:40:17;8.00;;;3.40;;
50681;SDS011;36779;52.168;20.878;2024-01-16T10:45:29;8.10;;;2.70;;
50681;SDS011;36779;52.168;20.878;2024-01-16T10:48:03;8.60;;;3.60;;
50681;SDS011;36779;52.168;20.878;2024-01-16T10:50:41;9.60;;;3.70;;
50681;SDS011;36779;52.168;20.878;2024-01-16T10:53:15;6.60;;;3.00;;
50681;SDS011;36779;52.168;20.878;2024-01-16T10:55:52;7.90;;;2.80;;
50681;SDS011;36779;52.168;20.878;2024-01-16T10:58:28;6.10;;;2.20;;
50681;SDS011;36779;52.168;20.878;2024-01-16T11:01:04;8.00;;;2.60;;
50681;SDS011;36779;52.168;20.878;2024-01-16T11:03:46;11.10;;;3.70;;
50681;SDS011;36779;52.168;20.878;2024-01-16T11:06:20;13.50;;;3.50;;
50681;SDS011;36779;52.168;20.878;2024-01-16T11:08:53;8.20;;;3.00;;
50681;SDS011;36779;52.168;20.878;2024-01-16T11:11:30;8.90;;;3.20;;
50681;SDS011;36779;52.168;20.878;2024-01-16T11:14:07;6.60;;;2.30;;
50681;SDS011;36779;52.168;20.878;2024-01-16T11:16:41;8.30;;;3.30;;
50681;SDS011;36779;52.168;20.878;2024-01-16T11:19:17;9.60;;;3.00;;
50681;SDS011;36779;52.168;20.878;2024-01-16T11:22:11;12.50;;;4.60;;
50681;SDS011;36779;52.168;20.878;2024-01-16T11:24:45;45.10;;;11.40;;
50681;SDS011;36779;52.168;20.878;2024-01-16T11:27:39;15.10;;;4.30;;
50681;SDS011;36779;52.168;20.878;2024-01-16T11:30:13;28.50;;;8.50;;
50681;SDS011;36779;52.168;20.878;2024-01-16T11:33:02;10.40;;;3.40;;
50681;SDS011;36779;52.168;20.878;2024-01-16T11:35:36;10.70;;;3.70;;
50681;SDS011;36779;52.168;20.878;2024-01-16T11:38:17;12.30;;;4.40;;
50681;SDS011;36779;52.168;20.878;2024-01-16T11:40:51;7.80;;;2.60;;
50681;SDS011;36779;52.168;20.878;2024-01-16T11:43:37;6.40;;;3.00;;
50681;SDS011;36779;52.168;20.878;2024-01-16T11:46:09;9.80;;;3.60;;
50681;SDS011;36779;52.168;20.878;2024-01-16T11:48:42;9.70;;;2.90;;
50681;SDS011;36779;52.168;20.878;2024-01-16T11:51:34;9.70;;;2.60;;
50681;SDS011;36779;52.168;20.878;2024-01-16T11:54:12;9.50;;;2.30;;
50681;SDS011;36779;52.168;20.878;2024-01-16T11:57:05;4.50;;;2.00;;
50681;SDS011;36779;52.168;20.878;2024-01-16T11:59:58;5.00;;;1.90;;
50681;SDS011;36779;52.168;20.878;2024-01-16T12:02:45;8.10;;;1.90;;
50681;SDS011;36779;52.168;20.878;2024-01-16T12:05:22;4.20;;;1.50;;
50681;SDS011;36779;52.168;20.878;2024-01-16T12:07:59;5.60;;;1.70;;
50681;SDS011;36779;52.168;20.878;2024-01-16T12:10:34;6.40;;;1.70;;
50681;SDS011;36779;52.168;20.878;2024-01-16T12:13:24;6.80;;;2.00;;
50681;SDS011;36779;52.168;20.878;2024-01-16T12:16:02;3.80;;;1.50;;
50681;SDS011;36779;52.168;20.878;2024-01-16T12:18:35;4.40;;;2.00;;
50681;SDS011;36779;52.168;20.878;2024-01-16T12:21:14;4.70;;;1.70;;
50681;SDS011;36779;52.168;20.878;2024-01-16T12:23:53;9.90;;;2.30;;
50681;SDS011;36779;52.168;20.878;2024-01-16T12:26:39;7.30;;;2.20;;
50681;SDS011;36779;52.168;20.878;2024-01-16T12:29:11;7.10;;;2.00;;
50681;SDS011;36779;52.168;20.878;2024-01-16T12:31:48;6.00;;;2.30;;
50681;SDS011;36779;52.168;20.878;2024-01-16T12:34:22;5.30;;;2.10;;
50681;SDS011;36779;52.168;20.878;2024-01-16T12:36:57;6.90;;;2.10;;
50681;SDS011;36779;52.168;20.878;2024-01-16T12:39:37;3.60;;;1.50;;
50681;SDS011;36779;52.168;20.878;2024-01-16T12:42:11;13.00;;;1.90;;
50681;SDS011;36779;52.168;20.878;2024-01-16T12:44:44;2.80;;;1.60;;
50681;SDS011;36779;52.168;20.878;2024-01-16T12:47:16;8.20;;;1.60;;
50681;SDS011;36779;52.168;20.878;2024-01-16T12:49:51;6.00;;;1.60;;
50681;SDS011;36779;52.168;20.878;2024-01-16T12:52:24;5.50;;;2.00;;
50681;SDS011;36779;52.168;20.878;2024-01-16T12:55:02;8.20;;;2.30;;
50681;SDS011;36779;52.168;20.878;2024-01-16T12:57:36;12.70;;;3.20;;
50681;SDS011;36779;52.168;20.878;2024-01-16T13:00:22;12.90;;;3.10;;
50681;SDS011;36779;52.168;20.878;2024-01-16T13:02:56;6.70;;;2.20;;
50681;SDS011;36779;52.168;20.878;2024-01-16T13:05:31;7.90;;;2.60;;
50681;SDS011;36779;52.168;20.878;2024-01-16T13:08:05;4.60;;;2.10;;
50681;SDS011;36779;52.168;20.878;2024-01-16T13:10:37;10.70;;;2.40;;
50681;SDS011;36779;52.168;20.878;2024-01-16T13:13:15;3.20;;;1.60;;
50681;SDS011;36779;52.168;20.878;2024-01-16T13:15:49;1.90;;;1.20;;
50681;SDS011;36779;52.168;20.878;2024-01-16T13:18:22;3.40;;;1.20;;
50681;SDS011;36779;52.168;20.878;2024-01-16T13:20:56;3.40;;;1.50;;
50681;SDS011;36779;52.168;20.878;2024-01-16T13:23:30;2.60;;;0.80;;
50681;SDS011;36779;52.168;20.878;2024-01-16T13:26:03;3.60;;;1.00;;
50681;SDS011;36779;52.168;20.878;2024-01-16T13:28:36;3.40;;;1.30;;
50681;SDS011;36779;52.168;20.878;2024-01-16T13:31:09;2.70;;;1.10;;
50681;SDS011;36779;52.168;20.878;2024-01-16T13:33:42;3.60;;;0.90;;
50681;SDS011;36779;52.168;20.878;2024-01-16T13:36:15;2.00;;;0.80;;
50681;SDS011;36779;52.168;20.878;2024-01-16T13:39:09;0.70;;;0.50;;
50681;SDS011;36779;52.168;20.878;2024-01-16T13:41:44;3.20;;;1.30;;
50681;SDS011;36779;52.168;20.878;2024-01-16T13:44:17;16.00;;;4.20;;
50681;SDS011;36779;52.168;20.878;2024-01-16T13:46:49;5.20;;;2.00;;
50681;SDS011;36779;52.168;20.878;2024-01-16T13:49:35;1.80;;;0.70;;
50681;SDS011;36779;52.168;20.878;2024-01-16T13:52:10;3.60;;;0.80;;
50681;SDS011;36779;52.168;20.878;2024-01-16T13:54:43;7.90;;;2.90;;
50681;SDS011;36779;52.168;20.878;2024-01-16T13:57:15;6.50;;;3.00;;
50681;SDS011;36779;52.168;20.878;2024-01-16T13:59:47;7.10;;;1.90;;
50681;SDS011;36779;52.168;20.878;2024-01-16T14:02:20;5.60;;;1.40;;
50681;SDS011;36779;52.168;20.878;2024-01-16T14:04:53;2.90;;;1.10;;
50681;SDS011;36779;52.168;20.878;2024-01-16T14:07:25;3.60;;;1.00;;
50681;SDS011;36779;52.168;20.878;2024-01-16T14:09:58;2.90;;;1.20;;
50681;SDS011;36779;52.168;20.878;2024-01-16T14:12:35;2.60;;;1.30;;
50681;SDS011;36779;52.168;20.878;2024-01-16T14:15:08;7.60;;;1.90;;
50681;SDS011;36779;52.168;20.878;2024-01-16T14:17:50;4.60;;;1.80;;
50681;SDS011;36779;52.168;20.878;2024-01-16T14:20:24;10.60;;;5.50;;
50681;SDS011;36779;52.168;20.878;2024-01-16T14:22:58;5.80;;;2.40;;
50681;SDS011;36779;52.168;20.878;2024-01-16T14:25:32;3.60;;;1.50;;
50681;SDS011;36779;52.168;20.878;2024-01-16T14:28:04;2.80;;;1.30;;
50681;SDS011;36779;52.168;20.878;2024-01-16T14:30:48;7.30;;;3.10;;
50681;SDS011;36779;52.168;20.878;2024-01-16T14:33:23;7.10;;;2.80;;
50681;SDS011;36779;52.168;20.878;2024-01-16T14:35:56;7.70;;;2.70;;
50681;SDS011;36779;52.168;20.878;2024-01-16T14:38:32;5.10;;;2.10;;
50681;SDS011;36779;52.168;20.878;2024-01-16T14:41:05;4.60;;;1.80;;
50681;SDS011;36779;52.168;20.878;2024-01-16T14:43:38;4.90;;;1.80;;
50681;SDS011;36779;52.168;20.878;2024-01-16T14:46:11;7.50;;;2.00;;
50681;SDS011;36779;52.168;20.878;2024-01-16T14:48:45;2.50;;;1.60;;
50681;SDS011;36779;52.168;20.878;2024-01-16T14:51:17;6.90;;;1.60;;
50681;SDS011;36779;52.168;20.878;2024-01-16T14:53:50;9.10;;;2.30;;
50681;SDS011;36779;52.168;20.878;2024-01-16T14:56:22;5.50;;;1.80;;
50681;SDS011;36779;52.168;20.878;2024-01-16T14:58:55;7.00;;;2.20;;
50681;SDS011;36779;52.168;20.878;2024-01-16T15:01:28;5.20;;;1.80;;
50681;SDS011;36779;52.168;20.878;2024-01-16T15:04:03;5.40;;;2.10;;
50681;SDS011;36779;52.168;20.878;2024-01-16T15:06:37;6.30;;;2.00;;
50681;SDS011;36779;52.168;20.878;2024-01-16T15:09:10;3.60;;;1.70;;
50681;SDS011;36779;52.168;20.878;2024-01-16T15:11:43;7.40;;;2.20;;
50681;SDS011;36779;52.168;20.878;2024-01-16T15:14:17;5.50;;;2.20;;
50681;SDS011;36779;52.168;20.878;2024-01-16T15:16:50;13.50;;;2.40;;
50681;SDS011;36779;52.168;20.878;2024-01-16T15:19:23;10.50;;;3.20;;